Terminal Aerodrome Forecast
Issued by NWS Twin Cities, MN

Home | Current Version | Previous Version | Text Only | Print | Product List | Glossary Off
Versions: 1 2 3 4 5 6 7 8 9 10 11 12 13 14 15 16 17

000
FTUS43 KMPX 171100
TAFSTC
TAF
KSTC 171127Z 1712/1812 30019G27KT P6SM OVC017
     FM172100 33015G23KT P6SM OVC030
     FM180200 33011KT P6SM OVC020=

USA.gov is the U.S. government's official web portal to all federal, state and local government web resources and services.